Flight Track Log - Related Links

Times and Time Zones

All times are in EDT time to prevent confusion due to time zone crossing. See the VNR160 flight status page for this flight to view local times or setup timezone preferences in your user account.

Time Position Orientation Groundspeed Altitude Reporting Facility
EDT Latitude Longitude Course Direction KTS MPH feet Rate Location/Type
Mon 10:49:54 AM 44.9578 -93.0617 24° Northeast 151 174 1,900  Level FAA TRACON SMA TRACON (SMA)
Mon 10:50:13 AM 44.9694 -93.0542 24° Northeast 154 177 2,600 2,308 Climbing FAA TRACON SMA TRACON (SMA)
Mon 10:50:33 AM 44.9819 -93.0514 North 150 173 3,400 2,100 Climbing FAA TRACON SMA TRACON (SMA)
Mon 10:50:53 AM 44.9978 -93.0486 North 146 168 4,000 1,650 Climbing FAA TRACON SMA TRACON (SMA)
Mon 10:51:13 AM 45.0111 -93.0519 350° North 163 188 4,500 1,650 Climbing FAA TRACON SMA TRACON (SMA)
Mon 10:51:33 AM 45.0247 -93.0583 342° North 167 192 5,100 1,950 Climbing FAA TRACON SMA TRACON (SMA)
Mon 10:51:53 AM 45.0436 -93.0669 342° North 180 207 5,800 1,950 Climbing FAA TRACON SMA TRACON (SMA)
Mon 10:52:13 AM 45.0575 -93.0792 328° Northwest 196 226 6,400 2,100 Climbing FAA TRACON SMA TRACON (SMA)
Mon 10:52:33 AM 45.0594 -93.1000 278° West 199 229 7,200 2,850 Climbing FAA TRACON SMA TRACON (SMA)
Mon 10:52:53 AM 45.0450 -93.1125 211° Southwest 187 215 8,300 2,400 Climbing FAA TRACON SMA TRACON (SMA)
Mon 10:53:13 AM 45.0300 -93.1125 180° South 175 201 8,800 1,500 Climbing FAA TRACON SMA TRACON (SMA)
Mon 10:53:33 AM 45.0136 -93.1111 177° South 185 213 9,300 1,800 Climbing FAA TRACON SMA TRACON (SMA)
Mon 10:53:53 AM 44.9919 -93.1094 177° South 201 231 10,000 2,100 Climbing FAA TRACON SMA TRACON (SMA)
Mon 10:54:13 AM 44.9742 -93.1078 176° South 207 238 10,700 1,800 Climbing FAA TRACON SMA TRACON (SMA)
Mon 10:54:33 AM 44.9564 -93.1061 176° South 208 239 11,200 1,500 Climbing FAA TRACON SMA TRACON (SMA)
Mon 10:54:53 AM 44.9331 -93.1103 187° South 219 252 11,700 1,050 Climbing FAA TRACON SMA TRACON (SMA)
Mon 10:55:13 AM 44.9158 -93.1228 207° Southwest 226 260 11,900 450 Climbing FAA TRACON SMA TRACON (SMA)
Mon 10:55:33 AM 44.8972 -93.1375 209° Southwest 242 278 12,000 600 Climbing FAA TRACON SMA TRACON (SMA)
Mon 10:55:53 AM 44.8703 -93.1581 208° Southwest 284 327 12,300 1,800 Climbing FAA TRACON SMA TRACON (SMA)
Mon 10:56:13 AM 44.8481 -93.1775 212° Southwest 304 350 13,200 2,700 Climbing FAA TRACON SMA TRACON (SMA)
Mon 10:56:33 AM 44.8300 -93.1983 219° Southwest 283 326 14,100 2,850 Climbing FAA TRACON SMA TRACON (SMA)
Mon 10:56:53 AM 44.8150 -93.2164 220° Southwest 245 282 15,100 2,600 Climbing FAA TRACON SMA TRACON (SMA)
Mon 10:57:33 AM 44.7861 -93.2508 220° Southwest 190 219 16,700 1,800 Climbing FAA TRACON SMA TRACON (SMA)
Mon 10:57:53 AM 44.7725 -93.2664 219° Southwest 197 227 16,900 450 Climbing FAA TRACON SMA TRACON (SMA)
Mon 10:58:13 AM 44.7533 -93.2869 217° Southwest 221 254 17,000 146 Climbing FAA TRACON SMA TRACON (SMA)
Mon 10:58:34 AM 44.7364 -93.3047 217° Southwest 242 278 17,000 585 Level FAA TRACON SMA TRACON (SMA)
Mon 10:58:54 AM 44.7183 -93.3233 216° Southwest 257 296 17,400 2,100 Climbing FAA TRACON SMA TRACON (SMA)
Mon 10:59:14 AM 44.6969 -93.3447 215° Southwest 249 287 18,400 3,000 Climbing FAA TRACON SMA TRACON (SMA)
Mon 10:59:34 AM 44.6817 -93.3603 216° Southwest 228 262 19,400 2,850 Climbing FAA TRACON SMA TRACON (SMA)
Mon 10:59:54 AM 44.6669 -93.3744 214° Southwest 211 243 20,300 2,400 Climbing FAA TRACON SMA TRACON (SMA)
Mon 11:00:14 AM 44.6494 -93.3925 216° Southwest 202 232 21,000 1,692 Climbing FAA TRACON SMA TRACON (SMA)
Mon 11:00:33 AM 44.6347 -93.4078 216° Southwest 209 241 21,400 1,231 Climbing FAA TRACON SMA TRACON (SMA)
Mon 11:00:53 AM 44.6194 -93.4236 216° Southwest 220 253 21,800 1,350 Climbing FAA TRACON SMA TRACON (SMA)
Mon 11:01:13 AM 44.6033 -93.4397 215° Southwest 228 262 22,300 1,800 Climbing FAA TRACON SMA TRACON (SMA)
Mon 11:01:33 AM 44.5833 -93.4600 216° Southwest 232 267 23,000 1,800 Climbing FAA TRACON SMA TRACON (SMA)
Mon 11:01:53 AM 44.5672 -93.4764 216° Southwest 233 268 23,500 1,650 Climbing FAA TRACON SMA TRACON (SMA)
Mon 11:02:13 AM 44.5464 -93.4975 216° Southwest 238 274 24,100 1,800 Climbing FAA TRACON SMA TRACON (SMA)
Mon 11:02:33 AM 44.5297 -93.5142 215° Southwest 240 276 24,700 1,500 Climbing FAA TRACON SMA TRACON (SMA)
Mon 11:02:53 AM 44.5131 -93.5317 217° Southwest 241 277 25,100 1,650 Climbing FAA TRACON SMA TRACON (SMA)
Mon 11:03:13 AM 44.4919 -93.5531 216° Southwest 242 278 25,800 1,650 Climbing FAA TRACON SMA TRACON (SMA)
Mon 11:03:33 AM 44.4750 -93.5700 216° Southwest 244 281 26,200 1,200 Climbing FAA TRACON SMA TRACON (SMA)
Mon 11:03:53 AM 44.4578 -93.5867 215° Southwest 244 281 26,600 1,350 Climbing FAA TRACON SMA TRACON (SMA)
Mon 11:04:13 AM 44.4406 -93.6047 217° Southwest 248 285 27,100 1,650 Climbing FAA TRACON SMA TRACON (SMA)
Mon 11:04:33 AM 44.4186 -93.6256 214° Southwest 250 288 27,700 1,650 Climbing FAA TRACON SMA TRACON (SMA)
Mon 11:04:53 AM 44.4006 -93.6419 213° Southwest 252 290 28,200 1,950 Climbing FAA TRACON SMA TRACON (SMA)
Mon 11:05:13 AM 44.3772 -93.6600 209° Southwest 249 287 29,000 2,000 Climbing FAA TRACON SMA TRACON (SMA)
Mon 11:05:32 AM 44.3592 -93.6750 211° Southwest 246 283 29,500 1,500 Climbing FAA TRACON SMA TRACON (SMA)
Mon 11:05:53 AM 44.3414 -93.6900 211° Southwest 243 280 30,000 1,429 Climbing FAA TRACON SMA TRACON (SMA)
Mon 11:06:14 AM 44.3192 -93.7086 211° Southwest 243 280 30,500 1,171 Climbing FAA TRACON SMA TRACON (SMA)
Mon 11:06:34 AM 44.3014 -93.7233 211° Southwest 241 277 30,800 900 Climbing FAA TRACON SMA TRACON (SMA)
Mon 11:06:54 AM 44.2828 -93.7369 208° Southwest 243 280 31,100 900 Climbing FAA TRACON SMA TRACON (SMA)
Mon 11:07:14 AM 44.2603 -93.7556 211° Southwest 246 283 31,400 600 Climbing FAA TRACON SMA TRACON (SMA)
Mon 11:07:34 AM 44.2417 -93.7711 211° Southwest 250 288 31,500 632 Climbing FAA TRACON SMA TRACON (SMA)
Mon 11:07:52 AM 44.2225 -93.7869 211° Southwest 257 296 31,800 632 Climbing FAA TRACON SMA TRACON (SMA)
Mon 11:08:12 AM 44.2033 -93.8028 211° Southwest 260 299 31,900 293 Climbing FAA TRACON SMA TRACON (SMA)
Mon 11:08:33 AM 44.1789 -93.8231 211° Southwest 265 305 32,000 62 Climbing FAA TRACON SMA TRACON (SMA)
Mon 11:09:49 AM 44.1050 -93.8781 208° Southwest 276 318 32,000  Level Minneapolis Center
Mon 11:10:50 AM 44.0350 -93.9347 210° Southwest 291 335 32,000  Level Minneapolis Center
Mon 11:11:52 AM 43.9628 -93.9922 210° Southwest 298 343 32,000  Level Minneapolis Center
Mon 11:12:54 AM 43.8769 -94.0594 209° Southwest 296 341 32,000  Level Minneapolis Center
Mon 11:13:55 AM 43.8039 -94.1164 209° Southwest 300 345 32,000  Level Minneapolis Center
Mon 11:14:57 AM 43.7319 -94.1750 210° Southwest 302 348 32,000  Level Minneapolis Center
Mon 11:15:58 AM 43.6558 -94.2208 204° Southwest 303 349 32,000  Level Minneapolis Center
Mon 11:17:00 AM 43.5669 -94.2306 185° South 320 368 32,000  Level Minneapolis Center
Mon 11:18:01 AM 43.4836 -94.2353 182° South 322 371 32,000  Level Minneapolis Center
Mon 11:19:03 AM 43.3769 -94.2444 184° South 322 371 32,000  Level Minneapolis Center
Mon 11:20:05 AM 43.2900 -94.2494 182° South 324 373 32,000  Level Minneapolis Center
Mon 11:21:06 AM 43.1989 -94.2558 183° South 327 376 32,000  Level Minneapolis Center
Mon 11:22:07 AM 43.1089 -94.2622 183° South 324 373 32,000  Level Minneapolis Center
Mon 11:23:09 AM 43.0183 -94.2678 183° South 325 374 32,000  Level Minneapolis Center
Mon 11:24:10 AM 42.9292 -94.2736 183° South 325 374 32,000  Level Minneapolis Center
Mon 11:25:12 AM 42.8192 -94.2819 183° South 329 379 32,000  Level Minneapolis Center
Mon 11:26:13 AM 42.7286 -94.2875 183° South 330 380 32,000  Level Minneapolis Center
Mon 11:27:15 AM 42.6372 -94.2936 183° South 331 381 32,000  Level Minneapolis Center
Mon 11:28:16 AM 42.5450 -94.2917 179° South 333 383 32,000  Level Minneapolis Center
Mon 11:29:18 AM 42.4536 -94.2856 177° South 337 388 32,000  Level Minneapolis Center
Mon 11:30:19 AM 42.3583 -94.2811 178° South 341 392 32,000  Level Minneapolis Center
Mon 11:31:20 AM 42.2447 -94.2725 177° South 339 390 32,000  Level Minneapolis Center
Mon 11:32:22 AM 42.1497 -94.2686 178° South 341 392 32,000  Level Minneapolis Center
Mon 11:33:23 AM 42.0525 -94.2650 178° South 347 399 32,000  Level Minneapolis Center
Mon 11:34:25 AM 41.9553 -94.2589 177° South 348 400 32,000  Level Minneapolis Center
Mon 11:35:26 AM 41.8567 -94.2539 178° South 351 404 32,000  Level Minneapolis Center
Mon 11:36:27 AM 41.7572 -94.2497 178° South 355 409 32,000  Level Minneapolis Center
Mon 11:37:29 AM 41.6581 -94.2439 177° South 356 410 32,000  Level Minneapolis Center
Mon 11:38:30 AM 41.5589 -94.2386 178° South 356 410 32,000  Level Minneapolis Center
Mon 11:39:31 AM 41.4583 -94.2339 178° South 359 413 32,000  Level Minneapolis Center
Mon 11:40:33 AM 41.3597 -94.2272 177° South 355 409 32,000  Level Minneapolis Center
Mon 11:41:34 AM 41.2403 -94.2208 178° South 356 410 32,000 443 Level Minneapolis Center
Mon 11:42:35 AM 41.1414 -94.2172 178° South 355 409 32,900 927 Climbing Minneapolis Center
Mon 11:43:37 AM 41.0478 -94.2142 179° South 350 403 33,900 537 Climbing Minneapolis Center
Mon 11:44:38 AM 40.9578 -94.2094 178° South 341 392 34,000 49 Climbing Minneapolis Center
Mon 11:45:40 AM 40.8678 -94.2031 177° South 331 381 34,000  Level Minneapolis Center
Mon 11:46:41 AM 40.7717 -94.1978 178° South 339 390 34,000  Level Minneapolis Center
Mon 11:47:42 AM 40.6728 -94.1942 178° South 350 403 34,000  Level Minneapolis Center
Mon 11:48:44 AM 40.5742 -94.1886 178° South 355 409 34,000  Level Minneapolis Center
Mon 11:49:45 AM 40.4569 -94.1836 178° South 355 409 34,000  Level Minneapolis Center
Mon 11:50:58 AM 40.3592 -94.1781 178° South 355 409 34,000  Level Minneapolis Center
Mon 11:51:27 AM 40.3058 -94.1756 178° South 354 407 34,000  Level Kansas City Center
Mon 11:52:28 AM 40.1958 -94.1694 178° South 354 407 34,000 -339 Level Kansas City Center
Mon 11:53:31 AM 40.0975 -94.1650 178° South 363 418 33,300 -484 Descending Kansas City Center
Mon 11:54:32 AM 39.9822 -94.1592 178° South 370 426 33,000 -144 Descending Kansas City Center
Mon 11:55:36 AM 39.8828 -94.1533 177° South 370 426 33,000  Level Kansas City Center
Mon 11:56:37 AM 39.7717 -94.1481 178° South 360 414 33,000  Level Kansas City Center
Mon 11:57:38 AM 39.6747 -94.1442 178° South 361 415 33,000  Level Kansas City Center
Mon 11:58:41 AM 39.5622 -94.1389 178° South 362 417 33,000  Level Kansas City Center
Mon 11:59:42 AM 39.4650 -94.1347 178° South 363 418 33,000  Level Kansas City Center
Mon 12:00:45 PM 39.3525 -94.1289 178° South 362 417 33,000  Level Kansas City Center
Mon 12:01:46 PM 39.2550 -94.1242 178° South 363 418 33,000  Level Kansas City Center
Mon 12:02:50 PM 39.1567 -94.1186 177° South 366 421 33,000  Level Kansas City Center
Mon 12:03:50 PM 39.0425 -94.1136 178° South 366 421 33,000  Level Kansas City Center
Mon 12:04:52 PM 38.9456 -94.1094 178° South 364 419 33,000 -768 Level Kansas City Center
Mon 12:05:55 PM 38.8292 -94.1036 178° South 374 430 31,400 -1,742 Descending Kansas City Center
Mon 12:06:56 PM 38.7286 -94.0986 178° South 376 433 29,400 -2,304 Descending Kansas City Center
Mon 12:08:00 PM 38.6164 -94.0942 178° South 360 414 26,600 -2,476 Descending Kansas City Center
Mon 12:09:02 PM 38.5297 -94.0894 178° South 330 380 24,200 -2,607 Descending Kansas City Center
Mon 12:10:02 PM 38.4353 -94.0858 178° South 303 349 21,300 -2,323 Descending Kansas City Center
Mon 12:11:06 PM 38.3578 -94.0811 177° South 287 330 19,400 -1,728 Descending Kansas City Center
Mon 12:12:07 PM 38.2756 -94.0767 178° South 291 335 17,700 -1,426 Descending Kansas City Center
Mon 12:13:08 PM 38.1933 -94.0728 178° South 295 339 16,500 -1,152 Descending Kansas City Center
Mon 12:14:12 PM 38.1092 -94.0689 178° South 299 344 15,300 -1,161 Descending Kansas City Center
Mon 12:15:12 PM 38.0264 -94.0656 178° South 299 344 14,100 -1,161 Descending Kansas City Center
Mon 12:16:16 PM 37.9475 -94.0614 178° South 288 331 12,900 -1,296 Descending Kansas City Center
Mon 12:17:17 PM 37.8494 -94.0564 178° South 291 335 11,400 -1,328 Descending Kansas City Center
Mon 12:18:18 PM 37.7722 -94.0533 178° South 282 325 10,200 -1,161 Descending Kansas City Center
Mon 12:19:21 PM 37.7025 -94.0511 179° South 259 298 9,000 -1,161 Descending Kansas City Center
Mon 12:20:22 PM 37.6342 -94.0469 177° South 249 287 7,800 -1,161 Descending Kansas City Center
Mon 12:21:25 PM 37.5628 -94.0417 177° South 251 289 6,600 -871 Descending Kansas City Center
Mon 12:22:26 PM 37.4892 -94.0350 176° South 260 299 6,000 -288 Descending Kansas City Center
Mon 12:23:30 PM 37.4092 -94.0294 177° South 249 287 6,000 -242 Level Kansas City Center
Mon 12:24:30 PM 37.3378 -94.0253 177° South 251 289 5,500 -634 Descending Kansas City Center
Mon 12:25:33 PM 37.2742 -94.0194 176° South 239 275 4,700 -762 Descending Kansas City Center
Mon 12:26:36 PM 37.2136 -94.0142 176° South 225 259 3,900 -780 Descending Kansas City Center
Mon 12:27:36 PM 37.1533 -94.0103 177° South 221 254 3,100 -800 Descending Kansas City Center

Login

Don't have an account? Register now (free) for customized features, flight alerts, and more!